createdAt,value
2022-11-17T02:47:20.353Z,974.67
2022-11-17T02:48:20.360Z,974.71
2022-11-17T02:49:22.084Z,974.55
2022-11-17T02:50:26.782Z,974.56
2022-11-17T02:51:23.379Z,974.61
2022-11-17T02:52:22.702Z,974.51
2022-11-17T02:53:21.706Z,974.55
2022-11-17T02:54:22.373Z,974.50
2022-11-17T02:55:21.310Z,974.51
2022-11-17T02:56:21.879Z,974.46
2022-11-17T02:57:21.442Z,974.49
2022-11-17T02:58:21.496Z,974.38
2022-11-17T02:59:21.588Z,974.41
2022-11-17T03:00:22.338Z,974.29
2022-11-17T03:01:21.456Z,974.29
2022-11-17T03:02:21.337Z,974.38
2022-11-17T03:03:21.563Z,974.30
2022-11-17T03:04:22.019Z,974.37
2022-11-17T03:05:21.223Z,974.34
2022-11-17T03:06:21.727Z,974.27
2022-11-17T03:07:23.219Z,974.26
2022-11-17T03:08:22.385Z,974.23
2022-11-17T03:09:22.159Z,974.18
2022-11-17T03:10:21.445Z,974.26
2022-11-17T03:11:21.209Z,974.25
2022-11-17T03:12:26.041Z,974.17
2022-11-17T03:13:21.201Z,974.17
2022-11-17T03:14:23.223Z,974.14
2022-11-17T03:15:21.596Z,974.15
2022-11-17T03:16:21.393Z,974.12
2022-11-17T03:17:21.171Z,974.13
2022-11-17T03:18:21.079Z,974.04
2022-11-17T03:19:21.213Z,974.08
2022-11-17T03:20:21.119Z,974.14
2022-11-17T03:21:21.100Z,974.12
2022-11-17T03:22:21.117Z,974.08
2022-11-17T03:23:22.069Z,974.03
2022-11-17T03:24:21.350Z,973.98
2022-11-17T03:25:21.020Z,973.98
2022-11-17T03:26:21.073Z,973.94
2022-11-17T03:27:21.025Z,973.95
2022-11-17T03:28:21.058Z,973.93
2022-11-17T03:29:21.127Z,973.92
2022-11-17T03:30:21.008Z,973.83
2022-11-17T03:31:20.995Z,973.87
2022-11-17T03:32:21.052Z,973.95
2022-11-17T03:33:21.014Z,973.81
2022-11-17T03:34:20.978Z,973.84
2022-11-17T03:45:31.538Z,973.80
2022-11-17T03:51:10.097Z,973.81
2022-11-17T04:00:35.997Z,973.69
2022-11-17T04:01:35.869Z,973.76
2022-11-17T04:02:35.754Z,973.71
2022-11-17T04:03:36.413Z,973.62
2022-11-17T04:04:35.637Z,973.62
2022-11-17T04:05:35.628Z,973.62
2022-11-17T04:06:35.670Z,973.65
2022-11-17T04:07:35.608Z,973.65
2022-11-17T04:08:35.887Z,973.64
2022-11-17T04:09:35.579Z,973.71
2022-11-17T04:10:35.576Z,973.72
2022-11-17T04:11:35.533Z,973.71
2022-11-17T04:12:35.574Z,973.67
2022-11-17T04:13:35.902Z,973.75
2022-11-17T04:14:35.603Z,973.73
2022-11-17T04:15:35.530Z,973.66
2022-11-17T04:16:35.483Z,973.67
2022-11-17T04:17:35.484Z,973.68
2022-11-17T04:21:48.229Z,973.71
2022-11-17T04:22:48.254Z,973.75
2022-11-17T04:23:48.476Z,973.64
2022-11-17T04:24:48.826Z,973.62
2022-11-17T04:25:48.055Z,973.49
2022-11-17T04:31:09.710Z,973.58
2022-11-17T04:32:09.839Z,973.52
2022-11-17T04:33:10.274Z,973.47
2022-11-17T04:34:09.661Z,973.49
2022-11-17T04:35:09.542Z,973.52
2022-11-17T04:36:09.864Z,973.48
2022-11-17T04:37:14.667Z,973.58
2022-11-17T04:38:09.508Z,973.52
2022-11-17T04:39:17.497Z,973.47
2022-11-17T05:01:38.777Z,973.24
2022-11-17T05:10:13.103Z,973.15
2022-11-17T05:11:22.297Z,973.11
2022-11-17T05:12:22.766Z,973.08
2022-11-17T05:19:15.141Z,973.01
2022-11-17T05:23:09.589Z,972.97
2022-11-17T05:41:00.400Z,972.65
2022-11-17T05:52:32.704Z,972.58
2022-11-17T06:09:21.994Z,972.69
2022-11-17T06:11:08.198Z,972.66
2022-11-17T06:11:27.701Z,972.61
2022-11-17T06:12:25.255Z,972.64
2022-11-17T06:13:24.039Z,972.61
2022-11-17T06:14:29.060Z,972.61
2022-11-17T06:15:23.433Z,972.51
2022-11-17T06:18:37.403Z,972.50
2022-11-17T06:19:37.501Z,972.56
2022-11-17T06:20:37.415Z,972.54
2022-11-17T06:22:04.541Z,972.56
2022-11-17T06:22:38.494Z,972.46
2022-11-17T06:23:37.698Z,972.49
2022-11-17T06:24:37.348Z,972.45
2022-11-17T06:25:37.254Z,972.41
2022-11-17T06:26:37.503Z,972.50
2022-11-17T06:27:37.244Z,972.42
2022-11-17T06:28:37.320Z,972.34
2022-11-17T06:29:43.953Z,972.33
2022-11-17T06:30:41.594Z,972.27
2022-11-17T06:31:39.490Z,972.37
2022-11-17T06:32:38.933Z,972.34
2022-11-17T06:33:38.651Z,972.31
2022-11-17T06:34:38.596Z,972.31
2022-11-17T06:35:38.667Z,972.33
2022-11-17T06:36:38.486Z,972.34
2022-11-17T06:37:38.422Z,972.36
2022-11-17T06:38:38.454Z,972.35
2022-11-17T06:39:38.331Z,972.34
2022-11-17T06:40:40.742Z,972.32
2022-11-17T06:41:38.358Z,972.45
2022-11-17T06:42:38.345Z,972.40
2022-11-17T06:43:38.863Z,972.41
2022-11-17T06:44:38.515Z,972.44
2022-11-17T06:45:39.356Z,972.39
2022-11-17T06:46:38.374Z,972.46
2022-11-17T06:47:39.188Z,972.40
2022-11-17T06:48:38.736Z,972.33
2022-11-17T06:49:38.388Z,972.38
2022-11-17T06:52:25.440Z,972.41
2022-11-17T06:55:42.967Z,972.42
2022-11-17T06:56:43.128Z,972.47
2022-11-17T06:57:42.923Z,972.36
2022-11-17T06:58:43.409Z,972.31
2022-11-17T06:59:42.894Z,972.37
2022-11-17T07:00:42.809Z,972.41
2022-11-17T07:01:43.990Z,972.45
2022-11-17T07:02:43.975Z,972.46
2022-11-17T07:03:44.091Z,972.47
2022-11-17T07:04:44.027Z,972.48
2022-11-17T07:05:43.947Z,972.50
2022-11-17T07:06:44.048Z,972.57
2022-11-17T07:07:44.117Z,972.52
2022-11-17T07:08:44.775Z,972.51
2022-11-17T07:09:43.913Z,972.46
2022-11-17T07:10:49.128Z,972.48
2022-11-17T07:11:45.962Z,972.42
2022-11-17T07:12:43.914Z,972.42
2022-11-17T07:13:44.109Z,972.37
2022-11-17T07:14:43.846Z,972.43
2022-11-17T07:15:43.878Z,972.40
2022-11-17T07:16:44.200Z,972.43
2022-11-17T07:17:44.435Z,972.35
2022-11-17T07:18:43.791Z,972.40
2022-11-17T07:19:43.826Z,972.36
2022-11-17T07:20:43.801Z,972.40
2022-11-17T07:21:44.311Z,972.44
2022-11-17T07:22:43.868Z,972.45
2022-11-17T07:23:44.020Z,972.47
2022-11-17T07:24:43.965Z,972.43
2022-11-17T07:25:43.712Z,972.43
2022-11-17T07:26:43.711Z,972.38
2022-11-17T07:27:43.721Z,972.38
2022-11-17T07:28:43.766Z,972.34
2022-11-17T07:29:44.474Z,972.31
2022-11-17T07:30:43.676Z,972.26
2022-11-17T07:31:43.674Z,972.33
2022-11-17T07:32:43.660Z,972.27
2022-11-17T07:33:44.120Z,972.24
2022-11-17T07:36:08.708Z,972.27
2022-11-17T07:36:10.432Z,972.18
2022-11-17T07:37:10.769Z,972.25
2022-11-17T07:38:10.433Z,972.23
2022-11-17T07:39:10.463Z,972.20
2022-11-17T07:40:10.428Z,972.19
2022-11-17T07:41:10.614Z,972.13
2022-11-17T07:42:10.339Z,972.14
2022-11-17T07:43:11.058Z,972.10
2022-11-17T07:44:10.384Z,972.09
2022-11-17T07:45:10.348Z,972.05
2022-11-17T07:46:10.560Z,972.09
2022-11-17T07:47:10.392Z,972.08
2022-11-17T07:48:12.292Z,972.06
2022-11-17T07:49:10.407Z,972.11
2022-11-17T07:50:10.389Z,972.05
2022-11-17T07:51:11.011Z,972.05
2022-11-17T07:52:10.550Z,972.05
2022-11-17T07:53:10.291Z,972.02
2022-11-17T07:54:13.029Z,972.00
2022-11-17T07:55:10.203Z,972.00
2022-11-17T07:56:10.171Z,972.07
2022-11-17T07:57:10.897Z,972.06
2022-11-17T07:58:10.348Z,972.10
2022-11-17T07:59:10.609Z,972.12
2022-11-17T08:00:10.171Z,972.09
2022-11-17T08:01:10.614Z,972.09
2022-11-17T08:02:10.241Z,972.07
2022-11-17T08:03:10.237Z,972.11
2022-11-17T08:04:10.236Z,972.07
2022-11-17T08:05:10.194Z,972.08
2022-11-17T08:06:10.253Z,972.07
2022-11-17T08:07:11.460Z,972.07
2022-11-17T08:08:10.121Z,972.05
2022-11-17T08:09:11.711Z,972.13
2022-11-17T08:10:10.117Z,972.13
2022-11-17T08:11:10.289Z,972.12
2022-11-17T08:12:10.738Z,972.16
2022-11-17T08:13:11.115Z,972.11
2022-11-17T08:14:09.993Z,972.15
2022-11-17T08:15:10.045Z,972.12
2022-11-17T08:16:10.110Z,972.16
2022-11-17T08:17:10.161Z,972.12
2022-11-17T08:18:10.028Z,972.08
2022-11-17T08:19:10.195Z,972.12
2022-11-17T08:20:09.984Z,972.12
2022-11-17T08:21:10.085Z,972.15
2022-11-17T08:22:10.177Z,972.09
2022-11-17T08:23:09.892Z,972.04
2022-11-17T08:24:09.998Z,972.02
2022-11-17T08:25:09.868Z,972.03
2022-11-17T08:26:10.408Z,972.05
2022-11-17T08:27:10.205Z,971.97
2022-11-17T08:28:09.873Z,972.04
2022-11-17T08:29:09.962Z,972.03
2022-11-17T08:30:09.840Z,971.94
2022-11-17T08:31:09.846Z,971.99
2022-11-17T08:32:10.352Z,972.04
2022-11-17T08:33:10.211Z,971.98
2022-11-17T08:34:09.957Z,972.07
2022-11-17T08:35:10.191Z,971.97
2022-11-17T08:36:09.909Z,972.02
2022-11-17T08:37:09.829Z,971.96
2022-11-17T08:38:09.707Z,972.05
2022-11-17T08:39:10.223Z,972.08
2022-11-17T08:40:09.793Z,972.04
2022-11-17T08:41:09.839Z,972.02
2022-11-17T08:42:09.698Z,972.06
2022-11-17T08:43:10.059Z,972.05
2022-11-17T08:44:09.789Z,972.09
2022-11-17T08:45:09.644Z,972.04
2022-11-17T08:46:09.721Z,972.09
2022-11-17T08:47:09.709Z,972.08
2022-11-17T08:48:09.614Z,972.10
2022-11-17T08:49:09.659Z,972.11
2022-11-17T08:50:09.676Z,972.10
2022-11-17T08:51:09.652Z,972.08
2022-11-17T08:52:10.153Z,972.10
2022-11-17T08:53:09.557Z,972.08
2022-11-17T08:54:13.200Z,972.09
2022-11-17T08:55:09.569Z,972.04
2022-11-17T08:56:09.717Z,972.06
2022-11-17T08:57:10.134Z,972.11
2022-11-17T08:58:09.677Z,972.09
2022-11-17T08:59:09.686Z,972.01
2022-11-17T09:00:09.847Z,971.99
2022-11-17T09:01:10.077Z,972.07
2022-11-17T09:02:09.723Z,972.03
2022-11-17T09:03:09.483Z,972.06
2022-11-17T09:04:10.629Z,972.01
2022-11-17T09:05:09.543Z,972.01
2022-11-17T09:06:09.473Z,971.97
2022-11-17T09:07:09.764Z,971.92
2022-11-17T09:08:43.223Z,971.90
2022-11-17T09:09:11.466Z,971.87
2022-11-17T09:10:10.144Z,971.86
2022-11-17T09:11:11.254Z,971.92
2022-11-17T09:12:11.320Z,971.90
2022-11-17T09:13:09.600Z,971.84
2022-11-17T09:14:09.486Z,971.92
2022-11-17T09:15:09.995Z,971.90
2022-11-17T09:16:09.419Z,971.88
2022-11-17T09:17:09.426Z,971.90
2022-11-17T09:18:09.334Z,971.96
2022-11-17T09:19:09.369Z,971.88
2022-11-17T09:20:10.055Z,971.89
2022-11-17T09:21:09.582Z,971.88
2022-11-17T09:22:11.495Z,971.90
2022-11-17T09:23:09.537Z,971.84
2022-11-17T09:24:10.005Z,971.89
2022-11-17T09:25:13.306Z,971.82
2022-11-17T09:26:10.477Z,971.85
2022-11-17T09:27:10.195Z,971.84
2022-11-17T09:28:09.435Z,971.86
2022-11-17T09:29:09.961Z,971.83
2022-11-17T09:30:09.193Z,971.89
2022-11-17T09:31:09.383Z,971.92
2022-11-17T09:32:09.700Z,971.93
2022-11-17T09:33:09.242Z,971.96
2022-11-17T09:34:09.422Z,971.96
2022-11-17T09:35:09.788Z,971.94
2022-11-17T09:36:09.375Z,971.94
2022-11-17T09:37:09.532Z,971.94
2022-11-17T09:38:09.220Z,971.96
2022-11-17T09:39:11.287Z,971.97
2022-11-17T09:40:09.269Z,971.92
2022-11-17T09:41:09.233Z,971.91
2022-11-17T09:42:09.429Z,971.94
2022-11-17T09:43:09.083Z,971.89
2022-11-17T09:44:09.352Z,971.88
2022-11-17T09:45:10.183Z,971.88
2022-11-17T09:46:09.581Z,971.91
2022-11-17T09:47:09.142Z,971.86
2022-11-17T09:48:39.012Z,971.94
2022-11-17T09:49:11.246Z,971.94
2022-11-17T09:50:09.298Z,971.97
2022-11-17T09:51:09.069Z,971.97
2022-11-17T09:52:09.188Z,971.95
2022-11-17T09:53:09.089Z,971.96
2022-11-17T09:54:09.062Z,972.03
2022-11-17T09:55:09.374Z,971.99
2022-11-17T09:56:09.081Z,971.97
2022-11-17T09:57:09.122Z,971.96
2022-11-17T09:58:09.027Z,971.94
2022-11-17T09:59:08.980Z,971.98
2022-11-17T10:00:08.978Z,971.98
2022-11-17T10:01:08.997Z,971.96
2022-11-17T10:02:09.033Z,972.03
2022-11-17T10:03:08.961Z,972.01
2022-11-17T10:04:08.947Z,972.02
2022-11-17T10:05:08.875Z,972.05
2022-11-17T10:06:08.881Z,972.10
2022-11-17T10:07:08.954Z,972.12
2022-11-17T10:08:08.861Z,972.08
2022-11-17T10:09:08.887Z,972.09
2022-11-17T10:10:08.986Z,972.11
2022-11-17T10:11:08.911Z,972.05
2022-11-17T10:12:08.738Z,972.12
2022-11-17T10:13:08.890Z,972.12
2022-11-17T10:14:08.883Z,972.06
2022-11-17T10:15:08.796Z,972.10
2022-11-17T10:16:08.814Z,972.14
2022-11-17T10:17:08.757Z,972.08
2022-11-17T10:18:08.743Z,972.12
2022-11-17T10:19:08.696Z,972.12
2022-11-17T10:20:08.763Z,972.12
2022-11-17T10:21:08.703Z,972.11
2022-11-17T10:22:08.799Z,972.08
2022-11-17T10:23:08.748Z,972.09
2022-11-17T10:24:08.705Z,972.12
2022-11-17T10:25:08.683Z,972.06
2022-11-17T10:26:08.654Z,972.17
2022-11-17T10:27:08.643Z,972.20
2022-11-17T10:28:08.652Z,972.17
2022-11-17T10:29:09.287Z,972.17
2022-11-17T10:30:09.579Z,972.22
2022-11-17T10:31:08.654Z,972.26
2022-11-17T10:32:08.655Z,972.25
2022-11-17T10:33:08.622Z,972.25
2022-11-17T10:34:09.360Z,972.23
2022-11-17T10:35:08.624Z,972.23
2022-11-17T10:36:08.601Z,972.25
2022-11-17T10:37:08.610Z,972.24
2022-11-17T10:38:08.572Z,972.13
2022-11-17T10:39:17.219Z,972.09
2022-11-17T10:40:10.541Z,972.02
2022-11-17T10:41:09.491Z,972.02
2022-11-17T10:42:08.583Z,971.97
2022-11-17T10:43:08.537Z,971.92
2022-11-17T10:44:08.478Z,971.89
2022-11-17T10:45:08.493Z,971.89
2022-11-17T10:46:08.447Z,971.83
2022-11-17T10:47:08.453Z,971.73
2022-11-17T10:48:08.483Z,971.77
2022-11-17T10:49:08.453Z,971.78
2022-11-17T10:50:08.420Z,971.79
2022-11-17T10:51:08.455Z,971.80
2022-11-17T10:52:08.415Z,971.77
2022-11-17T10:53:12.568Z,971.82
2022-11-17T10:54:09.459Z,971.86
2022-11-17T10:55:08.390Z,971.79
2022-11-17T10:56:08.372Z,971.86
2022-11-17T10:57:08.347Z,971.85
2022-11-17T10:58:08.427Z,971.86
2022-11-17T10:59:08.382Z,971.86
2022-11-17T11:00:08.340Z,971.90
2022-11-17T11:01:08.415Z,971.95
2022-11-17T11:02:08.343Z,971.95
2022-11-17T11:03:08.334Z,971.90
2022-11-17T11:04:08.317Z,971.96
2022-11-17T11:05:08.275Z,971.95
2022-11-17T11:06:14.556Z,971.93
2022-11-17T11:07:09.355Z,971.90
2022-11-17T11:08:08.209Z,971.96
2022-11-17T11:09:08.233Z,971.91
2022-11-17T11:10:08.170Z,971.93
2022-11-17T11:11:08.250Z,971.97
2022-11-17T11:12:08.242Z,971.95
2022-11-17T11:13:08.173Z,971.86
2022-11-17T11:14:08.198Z,971.86
2022-11-17T11:15:08.179Z,971.86
2022-11-17T11:16:08.111Z,972.01
2022-11-17T11:17:08.120Z,972.01
2022-11-17T11:18:08.125Z,971.89
2022-11-17T11:19:08.565Z,971.91
2022-11-17T11:20:08.210Z,971.93
2022-11-17T11:21:08.106Z,971.90
2022-11-17T11:22:08.105Z,971.88
2022-11-17T11:23:08.147Z,971.90
2022-11-17T11:24:08.092Z,971.89
2022-11-17T11:25:08.079Z,971.97
2022-11-17T11:26:08.066Z,971.97
2022-11-17T11:27:08.024Z,971.94
2022-11-17T11:28:08.076Z,971.95
2022-11-17T11:29:08.337Z,971.88
2022-11-17T11:30:08.068Z,971.89
2022-11-17T11:31:08.016Z,971.98
2022-11-17T11:32:08.012Z,971.94
2022-11-17T11:33:07.987Z,971.98
2022-11-17T11:34:07.959Z,972.04
2022-11-17T11:35:08.336Z,972.03
2022-11-17T11:36:07.955Z,972.02
2022-11-17T11:37:07.978Z,971.96
2022-11-17T11:38:07.963Z,972.02
2022-11-17T11:39:08.385Z,972.05
2022-11-17T11:40:07.898Z,972.07
2022-11-17T11:41:07.973Z,972.05
2022-11-17T11:42:08.402Z,971.95
2022-11-17T11:43:09.062Z,971.94
2022-11-17T11:44:07.923Z,971.91
2022-11-17T11:45:07.847Z,971.89
2022-11-17T11:46:07.876Z,971.92
2022-11-17T11:47:07.835Z,971.92
2022-11-17T11:48:07.839Z,971.95
2022-11-17T11:49:08.053Z,971.96
2022-11-17T11:50:09.188Z,971.93
2022-11-17T11:51:07.817Z,971.97
2022-11-17T11:52:07.764Z,971.97
2022-11-17T11:53:07.764Z,971.99
2022-11-17T11:54:07.849Z,971.99
2022-11-17T11:55:07.777Z,971.95
2022-11-17T11:56:07.789Z,971.94
2022-11-17T11:57:07.747Z,971.92
2022-11-17T11:58:07.748Z,971.91
2022-11-17T11:59:07.725Z,971.93
2022-11-17T12:00:07.756Z,971.94
2022-11-17T12:01:07.680Z,971.93
2022-11-17T12:02:07.824Z,972.00
2022-11-17T12:03:07.765Z,971.98
2022-11-17T12:04:07.699Z,971.96
2022-11-17T12:05:07.714Z,971.99
2022-11-17T12:06:07.843Z,971.96
2022-11-17T12:07:07.724Z,971.99
2022-11-17T12:08:10.789Z,972.13
2022-11-17T12:09:08.676Z,972.06
2022-11-17T12:10:07.720Z,972.11
2022-11-17T12:11:07.595Z,972.19
2022-11-17T12:12:07.619Z,972.22
2022-11-17T12:13:07.745Z,972.19
2022-11-17T12:14:07.618Z,972.15
2022-11-17T12:15:07.970Z,972.17
2022-11-17T12:16:07.573Z,972.14
2022-11-17T12:17:07.578Z,972.14
2022-11-17T12:18:07.771Z,972.18
2022-11-17T12:19:07.616Z,972.20
2022-11-17T12:20:10.906Z,972.18
2022-11-17T12:21:08.670Z,972.11
2022-11-17T12:22:07.545Z,972.17
2022-11-17T12:23:07.505Z,972.08
2022-11-17T12:24:07.583Z,972.12
2022-11-17T12:25:07.561Z,972.12
2022-11-17T12:26:07.507Z,972.11
2022-11-17T12:27:07.602Z,972.17
2022-11-17T12:28:07.464Z,972.09
2022-11-17T12:29:07.452Z,972.11
2022-11-17T12:30:07.479Z,972.16
2022-11-17T12:31:10.304Z,972.16
2022-11-17T12:32:08.597Z,972.14
2022-11-17T12:33:07.439Z,972.18
2022-11-17T12:34:07.414Z,972.12
2022-11-17T12:35:07.387Z,972.19
2022-11-17T12:36:07.419Z,972.16
2022-11-17T12:37:07.440Z,972.25
2022-11-17T12:38:41.253Z,972.11
2022-11-17T12:39:40.761Z,972.20
2022-11-17T12:40:41.304Z,972.20
2022-11-17T12:41:07.940Z,972.16
2022-11-17T12:44:28.587Z,972.15
2022-11-17T12:45:28.594Z,972.21
2022-11-17T12:46:30.016Z,972.19
2022-11-17T12:56:57.101Z,972.34
2022-11-17T12:57:58.745Z,972.36
2022-11-17T12:58:58.640Z,972.31
2022-11-17T12:59:59.038Z,972.33
2022-11-17T13:03:16.433Z,972.32
2022-11-17T13:04:17.010Z,972.31
2022-11-17T13:05:16.285Z,972.39
2022-11-17T13:06:37.246Z,972.36
2022-11-17T13:07:24.458Z,972.35
2022-11-17T13:08:18.672Z,972.37
2022-11-17T13:09:16.629Z,972.39
2022-11-17T13:10:17.214Z,972.43
2022-11-17T13:11:18.197Z,972.41
2022-11-17T13:12:52.740Z,972.46
2022-11-17T13:13:19.105Z,972.50
2022-11-17T13:14:17.816Z,972.49
2022-11-17T13:15:17.698Z,972.52
2022-11-17T13:16:19.095Z,972.54
2022-11-17T13:17:19.663Z,972.57
2022-11-17T13:18:22.805Z,972.54
2022-11-17T13:19:19.015Z,972.59
2022-11-17T13:20:18.059Z,972.66
2022-11-17T13:21:17.296Z,972.68
2022-11-17T13:22:17.367Z,972.62
2022-11-17T13:23:17.522Z,972.66
2022-11-17T13:24:17.412Z,972.72
2022-11-17T13:25:20.859Z,972.76
2022-11-17T13:26:17.684Z,972.74
2022-11-17T13:27:17.618Z,972.73
2022-11-17T13:28:17.455Z,972.76
2022-11-17T13:29:17.608Z,972.78
2022-11-17T13:30:17.218Z,972.75
2022-11-17T13:31:17.082Z,972.80
2022-11-17T13:32:17.266Z,972.84
2022-11-17T13:33:18.181Z,972.85
2022-11-17T13:34:17.417Z,972.82
2022-11-17T13:35:17.077Z,972.79
2022-11-17T13:36:17.312Z,972.81
2022-11-17T13:37:27.734Z,972.77
2022-11-17T13:38:19.157Z,972.80
2022-11-17T13:39:19.534Z,972.74
2022-11-17T13:40:17.231Z,972.77
2022-11-17T13:41:19.285Z,972.76
2022-11-17T13:42:18.698Z,972.71
2022-11-17T13:43:17.681Z,972.72
2022-11-17T13:44:17.333Z,972.73
2022-11-17T13:45:22.617Z,972.73
2022-11-17T13:46:23.217Z,972.69
2022-11-17T13:47:22.851Z,972.73
2022-11-17T13:48:39.164Z,972.76
2022-11-17T13:49:19.335Z,972.73
2022-11-17T13:50:17.090Z,972.72
2022-11-17T13:51:17.008Z,972.72
2022-11-17T13:52:19.761Z,972.75
2022-11-17T13:54:07.101Z,972.67
2022-11-17T13:54:22.475Z,972.72
2022-11-17T13:55:17.736Z,972.73
2022-11-17T13:56:16.978Z,972.72
2022-11-17T13:57:39.575Z,972.79
2022-11-17T13:58:26.732Z,972.75
2022-11-17T13:59:29.598Z,972.80
2022-11-17T14:00:19.051Z,972.81
2022-11-17T14:01:17.103Z,972.85
2022-11-17T14:02:17.105Z,972.83
2022-11-17T14:03:25.946Z,972.82
2022-11-17T14:04:19.991Z,972.82
2022-11-17T14:05:59.281Z,972.87
2022-11-17T14:08:04.465Z,972.87
2022-11-17T14:09:11.867Z,972.90
2022-11-17T14:10:41.730Z,972.91
2022-11-17T14:11:04.291Z,972.91
2022-11-17T14:12:04.095Z,972.92
2022-11-17T14:13:05.539Z,972.95
2022-11-17T14:14:07.905Z,972.93
2022-11-17T14:15:14.856Z,972.89
2022-11-17T14:18:19.711Z,972.93
2022-11-17T14:19:19.943Z,972.91
2022-11-17T14:20:22.878Z,972.91
2022-11-17T14:21:23.677Z,972.92
2022-11-17T14:22:24.952Z,972.93
2022-11-17T14:23:21.991Z,972.99
2022-11-17T14:24:28.459Z,972.97
2022-11-17T14:25:44.697Z,972.93
2022-11-17T14:29:39.759Z,973.01
2022-11-17T14:30:38.863Z,972.98
2022-11-17T14:32:18.046Z,972.98
2022-11-17T15:09:33.401Z,973.33
2022-11-17T15:26:56.997Z,973.46
2022-11-17T15:35:32.085Z,973.50
2022-11-17T15:36:37.252Z,973.48
2022-11-17T15:37:34.054Z,973.42
2022-11-17T15:38:34.576Z,973.48
2022-11-17T15:39:33.975Z,973.45
2022-11-17T15:40:49.161Z,973.47
2022-11-17T15:53:04.017Z,973.58
2022-11-17T15:54:07.912Z,973.57
2022-11-17T15:55:01.167Z,973.56
2022-11-17T15:55:57.466Z,973.58
2022-11-17T16:09:50.279Z,973.63
2022-11-17T16:11:59.682Z,973.66
2022-11-17T16:24:44.684Z,973.85
2022-11-17T16:32:51.447Z,973.84
2022-11-17T16:34:10.463Z,973.83
2022-11-17T16:52:34.347Z,973.92
2022-11-17T17:03:17.529Z,973.90
2022-11-17T17:05:00.000Z,973.88
2022-11-17T17:05:28.231Z,973.89
2022-11-17T17:06:29.091Z,973.86
2022-11-17T17:14:00.154Z,973.94
2022-11-17T17:15:05.181Z,973.94
2022-11-17T17:31:31.714Z,974.16
2022-11-17T17:33:18.798Z,974.17
2022-11-17T17:33:37.994Z,974.16
2022-11-17T17:35:24.506Z,974.14
2022-11-17T17:35:49.224Z,974.16
2022-11-17T17:36:45.264Z,974.15
2022-11-17T17:38:20.345Z,974.13
2022-11-17T17:38:48.966Z,974.18
2022-11-17T17:39:44.274Z,974.13
2022-11-17T17:40:37.452Z,974.15
2022-11-17T17:41:38.711Z,974.15
2022-11-17T17:43:10.857Z,974.08
2022-11-17T17:43:49.235Z,974.15
2022-11-17T17:45:23.116Z,974.16
2022-11-17T17:45:42.730Z,974.14
2022-11-17T17:47:59.366Z,974.22
2022-11-17T17:48:59.329Z,974.18
2022-11-17T17:49:20.271Z,974.21
2022-11-17T17:50:12.484Z,974.20
2022-11-17T17:51:08.980Z,974.20
2022-11-17T17:52:12.442Z,974.22
2022-11-17T17:53:08.655Z,974.25
2022-11-17T17:54:38.257Z,974.33
2022-11-17T18:07:38.373Z,974.30
2022-11-17T18:08:40.638Z,974.27
2022-11-17T18:10:14.211Z,974.30
2022-11-17T18:12:43.752Z,974.27
2022-11-17T18:13:44.034Z,974.26
2022-11-17T18:14:43.814Z,974.34
2022-11-17T18:15:43.746Z,974.29
2022-11-17T18:16:43.588Z,974.32
2022-11-17T18:23:07.038Z,974.44
2022-11-17T18:24:17.896Z,974.40
2022-11-17T18:25:09.828Z,974.40
2022-11-17T18:26:14.247Z,974.37
2022-11-17T18:27:08.267Z,974.39
2022-11-17T18:28:13.609Z,974.48
2022-11-17T18:29:09.148Z,974.34
2022-11-17T18:30:09.232Z,974.45
2022-11-17T18:41:42.841Z,974.39
2022-11-17T18:42:44.131Z,974.39
2022-11-17T18:58:00.037Z,974.35
2022-11-17T19:00:06.220Z,974.34
2022-11-17T19:00:16.001Z,974.31
2022-11-17T19:01:14.442Z,974.30
2022-11-17T19:02:13.202Z,974.35
2022-11-17T19:03:13.259Z,974.29
2022-11-17T19:04:12.847Z,974.31
2022-11-17T19:05:12.904Z,974.32
2022-11-17T19:06:12.893Z,974.34
2022-11-17T19:07:13.003Z,974.33
2022-11-17T19:08:13.337Z,974.31
2022-11-17T19:09:13.445Z,974.31
2022-11-17T19:10:13.248Z,974.30
2022-11-17T19:11:12.933Z,974.29
2022-11-17T19:12:13.142Z,974.30
2022-11-17T19:13:13.393Z,974.34
2022-11-17T19:14:13.110Z,974.35
2022-11-17T19:15:13.643Z,974.32
2022-11-17T19:16:13.245Z,974.30
2022-11-17T19:17:13.791Z,974.34
2022-11-17T19:18:13.308Z,974.37
2022-11-17T19:19:13.810Z,974.36
2022-11-17T19:20:13.389Z,974.32
2022-11-17T19:21:12.719Z,974.31
2022-11-17T19:22:12.808Z,974.37
2022-11-17T19:23:12.844Z,974.42
2022-11-17T19:24:12.836Z,974.44
2022-11-17T19:25:12.734Z,974.35
2022-11-17T19:26:12.627Z,974.40
2022-11-17T19:27:12.933Z,974.45
2022-11-17T19:28:12.743Z,974.42
2022-11-17T19:29:17.295Z,974.43
2022-11-17T19:30:14.033Z,974.43
2022-11-17T19:31:12.628Z,974.37
2022-11-17T19:35:46.842Z,974.41
2022-11-17T19:37:21.897Z,974.44
2022-11-17T19:53:16.874Z,974.78
2022-11-17T20:09:06.316Z,974.92
2022-11-17T20:21:03.610Z,975.06
2022-11-17T20:26:39.143Z,975.08
2022-11-17T20:27:40.129Z,975.07
2022-11-17T20:28:39.087Z,975.16
2022-11-17T20:29:39.513Z,975.18
2022-11-17T20:30:38.983Z,975.17
2022-11-17T20:31:38.970Z,975.19
2022-11-17T20:32:38.960Z,975.20
2022-11-17T20:33:38.967Z,975.13
2022-11-17T20:34:40.199Z,975.17
2022-11-17T20:35:40.122Z,975.20
2022-11-17T20:36:40.128Z,975.18
2022-11-17T20:37:40.140Z,975.15
2022-11-17T20:38:40.108Z,975.15
2022-11-17T20:39:40.122Z,975.14
2022-11-17T20:40:40.116Z,975.18
2022-11-17T20:41:40.032Z,975.17
2022-11-17T20:42:40.129Z,975.17
2022-11-17T20:43:40.003Z,975.13
2022-11-17T20:44:40.027Z,975.13
2022-11-17T20:45:39.997Z,975.17
2022-11-17T20:46:40.063Z,975.14
2022-11-17T20:53:12.363Z,975.34
2022-11-17T20:54:12.409Z,975.31
